createdAt,value
2018-09-25T00:00:30.635Z,2.20
2018-09-25T00:03:04.397Z,2.20
2018-09-25T00:05:38.132Z,2.10
2018-09-25T00:08:11.820Z,2.07
2018-09-25T00:10:45.413Z,2.20
2018-09-25T00:13:20.952Z,2.00
2018-09-25T00:15:55.803Z,2.17
2018-09-25T00:18:29.483Z,2.10
2018-09-25T00:21:03.598Z,2.40
2018-09-25T00:23:37.320Z,2.20
2018-09-25T00:26:11.480Z,2.50
2018-09-25T00:28:46.214Z,2.10
2018-09-25T00:31:19.858Z,2.07
2018-09-25T00:33:53.545Z,2.10
2018-09-25T00:36:27.210Z,2.33
2018-09-25T00:39:01.037Z,2.20
2018-09-25T00:41:35.373Z,2.07
2018-09-25T00:44:08.878Z,2.10
2018-09-25T00:46:42.625Z,2.23
2018-09-25T00:49:16.274Z,2.30
2018-09-25T00:51:50.074Z,2.13
2018-09-25T00:54:23.719Z,2.03
2018-09-25T00:56:57.393Z,2.10
2018-09-25T00:59:31.037Z,2.33
2018-09-25T01:04:45.519Z,2.10
2018-09-25T01:07:19.079Z,2.40
2018-09-25T01:09:52.866Z,2.23
2018-09-25T01:12:27.201Z,2.63
2018-09-25T01:15:01.508Z,2.03
2018-09-25T01:17:35.135Z,2.03
2018-09-25T01:20:08.777Z,2.00
2018-09-25T01:22:42.346Z,2.10
2018-09-25T01:25:27.284Z,2.10
2018-09-25T01:28:01.207Z,2.17
2018-09-25T01:30:35.312Z,1.90
2018-09-25T01:33:08.894Z,1.93
2018-09-25T01:35:42.609Z,2.50
2018-09-25T01:38:20.551Z,1.90
2018-09-25T01:40:54.173Z,2.03
2018-09-25T01:43:27.843Z,2.40
2018-09-25T01:46:04.367Z,2.07
2018-09-25T01:48:38.340Z,2.23
2018-09-25T01:51:11.842Z,1.97
2018-09-25T01:53:45.397Z,2.10
2018-09-25T01:56:19.084Z,2.50
2018-09-25T01:58:52.823Z,2.17
2018-09-25T02:01:40.250Z,2.23
2018-09-25T02:04:14.137Z,2.43
2018-09-25T02:06:47.862Z,2.80
2018-09-25T02:09:21.773Z,2.80
2018-09-25T02:11:55.268Z,2.50
2018-09-25T02:14:29.373Z,2.10
2018-09-25T02:17:03.205Z,2.27
2018-09-25T02:19:36.843Z,2.73
2018-09-25T02:22:11.089Z,2.20
2018-09-25T02:24:44.586Z,2.40
2018-09-25T02:27:18.258Z,2.30
2018-09-25T02:29:51.827Z,2.10
2018-09-25T02:32:25.920Z,2.20
2018-09-25T02:34:59.590Z,2.17
2018-09-25T02:37:33.157Z,2.20
2018-09-25T02:40:06.780Z,2.37
2018-09-25T02:42:40.488Z,1.80
2018-09-25T02:45:14.142Z,2.40
2018-09-25T02:47:47.958Z,2.33
2018-09-25T02:50:21.630Z,2.60
2018-09-25T02:52:55.579Z,2.70
2018-09-25T02:55:29.584Z,2.30
2018-09-25T02:58:03.105Z,2.17
2018-09-25T03:00:44.951Z,2.50
2018-09-25T03:03:19.112Z,2.30
2018-09-25T03:05:52.640Z,2.13
2018-09-25T03:08:26.190Z,1.90
2018-09-25T03:10:59.811Z,2.20
2018-09-25T03:13:37.268Z,2.10
2018-09-25T03:16:11.494Z,1.80
2018-09-25T03:18:45.219Z,2.20
2018-09-25T03:21:18.783Z,2.33
2018-09-25T03:23:53.668Z,2.37
2018-09-25T03:26:27.112Z,2.83
2018-09-25T03:29:00.723Z,2.27
2018-09-25T03:31:34.474Z,2.17
2018-09-25T03:34:08.185Z,2.40
2018-09-25T03:36:41.857Z,2.70
2018-09-25T03:39:15.745Z,2.47
2018-09-25T03:41:49.577Z,2.20
2018-09-25T03:44:23.243Z,2.27
2018-09-25T03:47:01.493Z,2.20
2018-09-25T03:49:35.830Z,2.17
2018-09-25T03:52:09.402Z,2.37
2018-09-25T03:54:43.213Z,2.23
2018-09-25T03:57:16.850Z,1.97
2018-09-25T03:59:51.319Z,1.70
2018-09-25T04:02:25.753Z,1.70
2018-09-25T04:04:59.298Z,1.70
2018-09-25T04:07:32.857Z,1.90
2018-09-25T04:10:06.550Z,1.77
2018-09-25T04:12:43.067Z,1.50
2018-09-25T04:15:16.993Z,1.57
2018-09-25T04:17:50.862Z,1.77
2018-09-25T04:20:24.351Z,1.60
2018-09-25T04:22:58.046Z,1.50
2018-09-25T04:25:31.745Z,1.67
2018-09-25T04:28:05.545Z,1.60
2018-09-25T04:30:39.214Z,1.53
2018-09-25T04:33:12.962Z,1.47
2018-09-25T04:35:46.630Z,1.70
2018-09-25T04:38:20.749Z,1.90
2018-09-25T04:40:54.881Z,1.70
2018-09-25T04:43:28.817Z,1.50
2018-09-25T04:46:02.406Z,1.40
2018-09-25T04:48:36.428Z,1.33
2018-09-25T04:51:10.104Z,1.40
2018-09-25T04:53:43.681Z,1.90
2018-09-25T04:56:17.250Z,1.50
2018-09-25T04:58:50.882Z,1.60
2018-09-25T05:04:06.339Z,1.60
2018-09-25T05:06:39.852Z,1.60
2018-09-25T05:09:13.611Z,1.40
2018-09-25T05:11:47.996Z,1.60
2018-09-25T05:14:21.708Z,1.30
2018-09-25T05:16:56.566Z,1.40
2018-09-25T05:19:30.307Z,1.50
2018-09-25T05:22:03.976Z,1.60
2018-09-25T05:24:37.625Z,1.70
2018-09-25T05:27:11.430Z,1.70
2018-09-25T05:29:46.806Z,1.53
2018-09-25T05:32:20.391Z,1.60
2018-09-25T05:34:53.980Z,1.73
2018-09-25T05:37:27.490Z,1.40
2018-09-25T05:40:01.793Z,1.60
2018-09-25T05:42:35.506Z,1.80
2018-09-25T05:45:09.158Z,1.80
2018-09-25T05:47:43.309Z,1.77
2018-09-25T05:50:16.786Z,1.70
2018-09-25T05:52:50.491Z,1.77
2018-09-25T05:55:24.192Z,1.77
2018-09-25T05:57:57.899Z,1.60
2018-09-25T06:03:11.094Z,1.40
2018-09-25T06:05:44.642Z,1.77
2018-09-25T06:08:19.182Z,1.60
2018-09-25T06:10:52.766Z,1.73
2018-09-25T06:13:26.417Z,2.27
2018-09-25T06:16:00.859Z,1.80
2018-09-25T06:18:40.286Z,1.93
2018-09-25T06:21:14.228Z,1.83
2018-09-25T06:23:48.243Z,1.80
2018-09-25T06:26:21.914Z,1.97
2018-09-25T06:28:55.679Z,1.70
2018-09-25T06:31:29.327Z,1.30
2018-09-25T06:34:03.063Z,1.53
2018-09-25T06:36:37.734Z,1.50
2018-09-25T06:39:12.859Z,1.90
2018-09-25T06:41:46.511Z,1.97
2018-09-25T06:44:20.218Z,1.80
2018-09-25T06:46:53.929Z,1.70
2018-09-25T06:49:27.586Z,1.50
2018-09-25T06:52:01.227Z,1.83
2018-09-25T06:54:34.921Z,1.40
2018-09-25T06:57:10.227Z,1.93
2018-09-25T06:59:43.878Z,1.80
2018-09-25T07:02:21.457Z,1.70
2018-09-25T07:04:55.689Z,1.80
2018-09-25T07:07:29.237Z,1.60
2018-09-25T07:10:03.533Z,1.90
2018-09-25T07:12:36.926Z,1.70
2018-09-25T07:15:10.661Z,1.57
2018-09-25T07:17:45.016Z,1.70
2018-09-25T07:20:18.434Z,1.70
2018-09-25T07:22:52.036Z,1.70
2018-09-25T07:25:25.735Z,1.60
2018-09-25T07:27:59.510Z,1.57
2018-09-25T07:30:35.501Z,1.83
2018-09-25T07:33:09.058Z,1.33
2018-09-25T07:35:42.777Z,1.60
2018-09-25T07:38:16.331Z,1.60
2018-09-25T07:40:50.115Z,1.30
2018-09-25T07:43:23.690Z,1.40
2018-09-25T07:45:57.210Z,1.30
2018-09-25T07:48:31.046Z,1.90
2018-09-25T07:51:05.325Z,1.43
2018-09-25T07:53:38.736Z,1.50
2018-09-25T07:56:12.364Z,1.30
2018-09-25T07:58:46.014Z,1.40
2018-09-25T08:04:01.154Z,1.52
2018-09-25T08:06:34.797Z,1.55
2018-09-25T08:09:08.396Z,1.70
2018-09-25T08:11:42.153Z,1.25
2018-09-25T08:14:16.270Z,1.40
2018-09-25T08:16:50.084Z,1.35
2018-09-25T08:19:23.622Z,1.40
2018-09-25T08:21:58.773Z,1.67
2018-09-25T08:24:32.309Z,1.52
2018-09-25T08:27:06.019Z,1.20
2018-09-25T08:29:39.690Z,1.42
2018-09-25T08:32:13.603Z,1.50
2018-09-25T08:34:47.134Z,1.30
2018-09-25T08:37:20.697Z,1.62
2018-09-25T08:39:54.526Z,1.30
2018-09-25T08:42:28.995Z,1.50
2018-09-25T08:45:02.722Z,1.27
2018-09-25T08:47:37.478Z,1.32
2018-09-25T08:50:11.205Z,1.22
2018-09-25T08:55:14.393Z,1.30
2018-09-25T08:57:47.931Z,1.07
2018-09-25T09:00:21.457Z,1.60
2018-09-25T09:02:56.434Z,1.10
2018-09-25T09:05:30.238Z,1.40
2018-09-25T09:08:05.545Z,1.40
2018-09-25T09:10:39.217Z,1.60
2018-09-25T09:13:13.022Z,1.45
2018-09-25T09:15:46.929Z,1.40
2018-09-25T09:18:20.589Z,1.27
2018-09-25T09:20:55.001Z,1.50
2018-09-25T09:23:28.605Z,1.32
2018-09-25T09:26:02.286Z,1.40
2018-09-25T09:28:35.864Z,1.30
2018-09-25T09:31:09.686Z,1.10
2018-09-25T09:33:43.215Z,1.20
2018-09-25T09:36:16.905Z,1.52
2018-09-25T09:38:50.629Z,1.30
2018-09-25T09:41:24.480Z,1.22
2018-09-25T09:43:58.616Z,1.20
2018-09-25T09:46:32.312Z,1.42
2018-09-25T09:49:07.202Z,1.10
2018-09-25T09:51:41.282Z,1.30
2018-09-25T09:54:15.412Z,1.40
2018-09-25T09:56:49.560Z,1.10
2018-09-25T09:59:23.134Z,1.20
2018-09-25T10:01:57.962Z,1.50
2018-09-25T10:04:32.110Z,1.00
2018-09-25T10:07:05.797Z,1.10
2018-09-25T10:09:39.504Z,1.17
2018-09-25T10:12:13.161Z,1.10
2018-09-25T10:14:50.245Z,1.10
2018-09-25T10:17:23.797Z,1.20
2018-09-25T10:19:57.351Z,1.32
2018-09-25T10:22:31.010Z,1.30
2018-09-25T10:25:04.686Z,1.30
2018-09-25T10:27:38.347Z,1.27
2018-09-25T10:30:12.024Z,1.40
2018-09-25T10:32:45.700Z,1.15
2018-09-25T10:35:19.424Z,1.52
2018-09-25T10:37:54.294Z,1.20
2018-09-25T10:40:29.481Z,1.50
2018-09-25T10:43:03.105Z,1.30
2018-09-25T10:45:36.736Z,1.40
2018-09-25T10:48:10.553Z,1.22
2018-09-25T10:50:44.277Z,1.30
2018-09-25T10:53:18.657Z,1.40
2018-09-25T10:55:52.312Z,1.12
2018-09-25T10:58:25.944Z,1.42
2018-09-25T11:01:00.265Z,1.17
2018-09-25T11:03:34.240Z,1.20
2018-09-25T11:06:07.885Z,1.22
2018-09-25T11:08:41.486Z,1.20
2018-09-25T11:11:15.136Z,1.40
2018-09-25T11:13:48.794Z,1.25
2018-09-25T11:16:23.770Z,1.20
2018-09-25T11:18:57.379Z,1.40
2018-09-25T11:21:31.158Z,1.12
2018-09-25T11:24:04.711Z,0.90
2018-09-25T11:26:38.482Z,1.30
2018-09-25T11:29:12.111Z,1.07
2018-09-25T11:31:45.773Z,1.40
2018-09-25T11:34:23.342Z,1.55
2018-09-25T11:36:56.987Z,1.45
2018-09-25T11:39:30.692Z,1.35
2018-09-25T11:42:04.251Z,1.32
2018-09-25T11:44:37.939Z,1.17
2018-09-25T11:47:12.089Z,1.30
2018-09-25T11:49:45.733Z,1.50
2018-09-25T11:52:19.356Z,1.40
2018-09-25T11:54:53.470Z,1.15
2018-09-25T11:57:27.126Z,1.12
2018-09-25T12:00:00.855Z,1.10
2018-09-25T12:02:34.789Z,1.10
2018-09-25T12:05:08.453Z,0.90
2018-09-25T12:07:42.142Z,1.20
2018-09-25T12:10:15.818Z,1.02
2018-09-25T12:12:49.539Z,1.10
2018-09-25T12:15:23.830Z,1.20
2018-09-25T12:17:57.373Z,1.40
2018-09-25T12:20:31.077Z,1.10
2018-09-25T12:23:04.712Z,1.10
2018-09-25T12:25:39.766Z,1.05
2018-09-25T12:28:13.297Z,1.00
2018-09-25T12:30:46.855Z,1.25
2018-09-25T12:33:21.590Z,1.10
2018-09-25T12:35:55.310Z,1.07
2018-09-25T12:38:28.875Z,1.27
2018-09-25T12:41:04.246Z,1.00
2018-09-25T12:43:37.582Z,1.05
2018-09-25T12:46:11.265Z,0.90
2018-09-25T12:48:44.794Z,1.00
2018-09-25T12:51:18.608Z,1.22
2018-09-25T12:53:52.953Z,0.93
2018-09-25T12:56:26.402Z,1.07
2018-09-25T12:58:59.997Z,0.95
2018-09-25T13:01:42.239Z,0.90
2018-09-25T13:04:16.193Z,1.05
2018-09-25T13:06:49.699Z,0.90
2018-09-25T13:09:23.306Z,0.98
2018-09-25T13:11:56.952Z,1.00
2018-09-25T13:14:30.550Z,1.00
2018-09-25T13:17:04.913Z,1.02
2018-09-25T13:19:38.623Z,0.75
2018-09-25T13:22:13.590Z,0.80
2018-09-25T13:24:47.226Z,0.82
2018-09-25T13:27:26.463Z,0.72
2018-09-25T13:30:00.515Z,0.90
2018-09-25T13:32:34.986Z,1.00
2018-09-25T13:35:08.575Z,1.00
2018-09-25T13:37:42.278Z,1.12
2018-09-25T13:40:15.926Z,1.10
2018-09-25T13:42:49.868Z,1.12
2018-09-25T13:45:23.535Z,0.90
2018-09-25T13:47:57.393Z,1.37
2018-09-25T13:50:30.918Z,0.72
2018-09-25T13:53:04.656Z,0.98
2018-09-25T13:55:40.043Z,0.90
2018-09-25T13:58:13.685Z,1.07
2018-09-25T14:00:48.089Z,0.98
2018-09-25T14:03:21.954Z,1.05
2018-09-25T14:05:55.672Z,0.90
2018-09-25T14:08:29.302Z,1.07
2018-09-25T14:11:02.976Z,0.98
2018-09-25T14:13:37.169Z,1.00
2018-09-25T14:16:11.999Z,0.90
2018-09-25T14:18:46.017Z,0.95
2018-09-25T14:21:19.559Z,0.80
2018-09-25T14:23:54.031Z,1.00
2018-09-25T14:26:27.466Z,1.00
2018-09-25T14:29:01.070Z,1.00
2018-09-25T14:31:34.733Z,0.80
2018-09-25T14:34:08.410Z,1.00
2018-09-25T14:36:42.060Z,1.20
2018-09-25T14:39:15.890Z,1.17
2018-09-25T14:41:49.463Z,1.20
2018-09-25T14:44:24.472Z,1.13
2018-09-25T14:46:58.154Z,1.00
2018-09-25T14:49:31.880Z,1.13
2018-09-25T14:52:05.541Z,1.60
2018-09-25T14:54:40.076Z,1.00
2018-09-25T14:57:13.571Z,1.10
2018-09-25T14:59:47.122Z,0.90
2018-09-25T15:02:22.131Z,1.20
2018-09-25T15:04:56.925Z,1.20
2018-09-25T15:07:30.496Z,1.00
2018-09-25T15:10:04.186Z,1.13
2018-09-25T15:12:38.502Z,0.90
2018-09-25T15:15:14.026Z,1.03
2018-09-25T15:17:49.208Z,1.20
2018-09-25T15:20:22.911Z,1.20
2018-09-25T15:22:56.541Z,0.97
2018-09-25T15:25:30.196Z,1.10
2018-09-25T15:28:04.017Z,0.90
2018-09-25T15:30:37.548Z,1.00
2018-09-25T15:33:11.355Z,1.20
2018-09-25T15:35:44.955Z,1.13
2018-09-25T15:38:19.645Z,1.00
2018-09-25T15:40:53.460Z,1.20
2018-09-25T15:43:27.155Z,0.90
2018-09-25T15:46:00.798Z,1.13
2018-09-25T15:48:35.245Z,1.20
2018-09-25T15:51:09.418Z,1.20
2018-09-25T15:53:42.940Z,1.30
2018-09-25T15:56:18.269Z,0.90
2018-09-25T15:58:52.040Z,0.93
2018-09-25T16:04:05.959Z,0.90
2018-09-25T16:09:06.715Z,1.10
2018-09-25T16:11:40.432Z,0.97
2018-09-25T16:14:15.286Z,1.20
2018-09-25T16:16:49.166Z,1.10
2018-09-25T16:19:22.851Z,1.00
2018-09-25T16:21:57.442Z,1.00
2018-09-25T16:24:30.894Z,1.20
2018-09-25T16:27:04.546Z,1.30
2018-09-25T16:29:38.131Z,1.30
2018-09-25T16:32:11.847Z,1.17
2018-09-25T16:34:45.507Z,1.27
2018-09-25T16:37:19.288Z,1.30
2018-09-25T16:39:53.627Z,1.00
2018-09-25T16:42:27.291Z,1.23
2018-09-25T16:45:00.926Z,1.20
2018-09-25T16:47:34.606Z,1.40
2018-09-25T16:50:09.151Z,1.20
2018-09-25T16:52:42.878Z,1.20
2018-09-25T16:55:16.573Z,1.10
2018-09-25T16:57:50.259Z,1.17
2018-09-25T17:00:25.707Z,1.20
2018-09-25T17:02:59.951Z,1.27
2018-09-25T17:05:33.590Z,1.63
2018-09-25T17:08:07.268Z,1.60
2018-09-25T17:10:40.937Z,1.20
2018-09-25T17:13:14.935Z,1.77
2018-09-25T17:15:49.569Z,1.30
2018-09-25T17:18:23.245Z,1.60
2018-09-25T17:20:57.068Z,2.00
2018-09-25T17:23:30.664Z,1.70
2018-09-25T17:26:05.166Z,1.70
2018-09-25T17:28:39.390Z,1.60
2018-09-25T17:31:12.994Z,1.97
2018-09-25T17:33:46.460Z,1.80
2018-09-25T17:36:20.125Z,2.10
2018-09-25T17:38:54.786Z,2.27
2018-09-25T17:41:28.322Z,1.83
2018-09-25T17:44:01.935Z,2.00
2018-09-25T17:46:37.558Z,2.27
2018-09-25T17:49:11.524Z,2.60
2018-09-25T17:51:45.656Z,5.20
2018-09-25T17:54:19.747Z,3.43
2018-09-25T17:56:54.611Z,3.87
2018-09-25T17:59:28.251Z,2.77
2018-09-25T18:02:02.268Z,3.67
2018-09-25T18:04:36.186Z,3.47
2018-09-25T18:07:10.006Z,3.80
2018-09-25T18:09:44.014Z,3.60
2018-09-25T18:12:17.668Z,3.03
2018-09-25T18:14:57.779Z,3.20
2018-09-25T18:17:31.368Z,2.97
2018-09-25T18:20:04.928Z,3.07
2018-09-25T18:22:38.696Z,2.50
2018-09-25T18:25:12.468Z,3.20
2018-09-25T18:27:46.315Z,3.27
2018-09-25T18:30:19.877Z,3.10
2018-09-25T18:32:53.477Z,3.47
2018-09-25T18:35:27.275Z,3.10
2018-09-25T18:38:00.876Z,4.27
2018-09-25T18:40:34.592Z,3.77
2018-09-25T18:43:08.329Z,2.90
2018-09-25T18:45:45.498Z,2.53
2018-09-25T18:48:19.683Z,3.00
2018-09-25T18:50:53.966Z,2.83
2018-09-25T18:53:27.992Z,3.57
2018-09-25T18:56:08.272Z,3.90
2018-09-25T18:58:42.231Z,3.50
2018-09-25T19:01:16.839Z,3.57
2018-09-25T19:03:50.925Z,2.90
2018-09-25T19:06:24.986Z,2.80
2018-09-25T19:08:59.397Z,2.57
2018-09-25T19:11:32.985Z,2.80
2018-09-25T19:14:06.641Z,2.80
2018-09-25T19:16:40.545Z,2.90
2018-09-25T19:19:14.297Z,3.30
2018-09-25T19:21:48.039Z,2.60
2018-09-25T19:24:21.550Z,2.47
2018-09-25T19:26:55.454Z,2.80
2018-09-25T19:29:29.344Z,2.83
2018-09-25T19:32:03.536Z,2.73
2018-09-25T19:34:37.535Z,2.83
2018-09-25T19:37:11.298Z,2.60
2018-09-25T19:39:45.002Z,2.30
2018-09-25T19:42:18.723Z,2.67
2018-09-25T19:44:52.828Z,2.90
2018-09-25T19:47:27.099Z,4.57
2018-09-25T19:50:00.724Z,3.70
2018-09-25T19:52:34.698Z,3.80
2018-09-25T19:55:08.340Z,3.70
2018-09-25T19:57:42.541Z,3.17
2018-09-25T20:00:16.074Z,3.50
2018-09-25T20:02:50.026Z,3.47
2018-09-25T20:05:23.648Z,3.10
2018-09-25T20:07:57.445Z,2.97
2018-09-25T20:10:31.112Z,2.63
2018-09-25T20:13:04.961Z,3.10
2018-09-25T20:15:39.007Z,2.77
2018-09-25T20:18:12.610Z,2.77
2018-09-25T20:20:47.594Z,3.07
2018-09-25T20:23:21.398Z,2.83
2018-09-25T20:25:55.924Z,2.60
2018-09-25T20:28:29.699Z,2.53
2018-09-25T20:31:03.562Z,2.50
2018-09-25T20:33:37.311Z,3.00
2018-09-25T20:36:11.219Z,2.80
2018-09-25T20:38:45.398Z,2.90
2018-09-25T20:41:18.938Z,2.50
2018-09-25T20:43:52.724Z,2.70
2018-09-25T20:46:27.098Z,2.93
2018-09-25T20:49:01.400Z,2.50
2018-09-25T20:51:34.889Z,3.03
2018-09-25T20:54:09.446Z,2.90
2018-09-25T20:56:43.236Z,3.00
2018-09-25T20:59:17.061Z,2.87
2018-09-25T21:01:51.340Z,3.00
2018-09-25T21:04:25.898Z,3.03
2018-09-25T21:06:59.682Z,3.53
2018-09-25T21:09:33.659Z,3.37
2018-09-25T21:12:07.395Z,3.40
2018-09-25T21:17:21.345Z,2.83
2018-09-25T21:19:55.186Z,3.27
2018-09-25T21:22:28.949Z,3.20
2018-09-25T21:25:09.558Z,2.70
2018-09-25T21:27:43.305Z,2.97
2018-09-25T21:30:17.034Z,3.10
2018-09-25T21:32:51.391Z,2.60
2018-09-25T21:35:24.986Z,2.73
2018-09-25T21:37:59.019Z,2.60
2018-09-25T21:40:32.843Z,3.17
2018-09-25T21:43:06.753Z,2.70
2018-09-25T21:45:45.217Z,2.90
2018-09-25T21:48:19.481Z,2.63
2018-09-25T21:50:53.343Z,2.73
2018-09-25T21:53:27.658Z,2.40
2018-09-25T21:56:01.325Z,2.70
2018-09-25T21:58:34.877Z,2.60
2018-09-25T22:01:09.642Z,3.17
2018-09-25T22:03:43.770Z,2.77
2018-09-25T22:06:17.413Z,3.07
2018-09-25T22:08:50.841Z,3.03
2018-09-25T22:11:24.928Z,2.67
2018-09-25T22:13:58.581Z,2.80
2018-09-25T22:16:33.213Z,2.50
2018-09-25T22:19:06.847Z,2.80
2018-09-25T22:21:40.468Z,3.20
2018-09-25T22:24:14.094Z,3.03
2018-09-25T22:26:47.929Z,2.97
2018-09-25T22:29:22.174Z,2.80
2018-09-25T22:31:56.335Z,3.10
2018-09-25T22:34:32.222Z,2.90
2018-09-25T22:37:06.486Z,3.17
2018-09-25T22:39:40.201Z,3.20
2018-09-25T22:42:13.866Z,3.33
2018-09-25T22:44:47.707Z,3.10
2018-09-25T22:47:21.637Z,2.90
2018-09-25T22:49:55.296Z,2.73
2018-09-25T22:52:28.942Z,2.60
2018-09-25T22:55:02.557Z,3.00
2018-09-25T22:57:38.034Z,2.80
2018-09-25T23:00:11.537Z,3.00
2018-09-25T23:02:45.369Z,3.07
2018-09-25T23:05:18.881Z,2.70
2018-09-25T23:07:52.525Z,3.07
2018-09-25T23:10:26.406Z,3.20
2018-09-25T23:12:59.932Z,3.10
2018-09-25T23:15:34.682Z,2.90
2018-09-25T23:18:08.201Z,3.07
2018-09-25T23:20:42.376Z,2.90
2018-09-25T23:23:16.110Z,3.47
2018-09-25T23:25:49.834Z,2.97
2018-09-25T23:28:23.488Z,3.07
2018-09-25T23:30:56.989Z,2.90
2018-09-25T23:33:30.782Z,2.90
2018-09-25T23:36:04.394Z,2.47
2018-09-25T23:38:38.005Z,3.37
2018-09-25T23:41:14.670Z,2.70
2018-09-25T23:43:48.179Z,2.70
2018-09-25T23:46:24.901Z,2.90
2018-09-25T23:49:05.526Z,2.97
2018-09-25T23:52:12.071Z,3.07
2018-09-25T23:54:46.176Z,2.90
2018-09-25T23:57:21.293Z,2.97
2018-09-25T23:59:54.093Z,2.80
